sensor_id;sensor_type;location;lat;lon;timestamp;P1;durP1;ratioP1;P2;durP2;ratioP2
23258;SDS011;11798;51.528;7.240;2023-07-30T00:01:19;6.27;;;4.47;;
23258;SDS011;11798;51.528;7.240;2023-07-30T00:03:44;9.23;;;4.90;;
23258;SDS011;11798;51.528;7.240;2023-07-30T00:06:10;6.73;;;4.80;;
23258;SDS011;11798;51.528;7.240;2023-07-30T00:08:35;8.77;;;5.03;;
23258;SDS011;11798;51.528;7.240;2023-07-30T00:11:01;7.30;;;4.47;;
23258;SDS011;11798;51.528;7.240;2023-07-30T00:13:27;6.50;;;4.90;;
23258;SDS011;11798;51.528;7.240;2023-07-30T00:15:52;6.97;;;5.30;;
23258;SDS011;11798;51.528;7.240;2023-07-30T00:18:18;8.63;;;5.10;;
23258;SDS011;11798;51.528;7.240;2023-07-30T00:20:44;8.30;;;5.10;;
23258;SDS011;11798;51.528;7.240;2023-07-30T00:23:09;8.77;;;5.27;;
23258;SDS011;11798;51.528;7.240;2023-07-30T00:25:35;8.47;;;5.43;;
23258;SDS011;11798;51.528;7.240;2023-07-30T00:28:01;7.33;;;5.13;;
23258;SDS011;11798;51.528;7.240;2023-07-30T00:30:26;8.00;;;4.83;;
23258;SDS011;11798;51.528;7.240;2023-07-30T00:32:52;6.37;;;4.17;;
23258;SDS011;11798;51.528;7.240;2023-07-30T00:35:17;8.40;;;4.40;;
23258;SDS011;11798;51.528;7.240;2023-07-30T00:37:43;7.53;;;4.40;;
23258;SDS011;11798;51.528;7.240;2023-07-30T00:40:09;12.57;;;5.20;;
23258;SDS011;11798;51.528;7.240;2023-07-30T00:45:03;7.87;;;5.03;;
23258;SDS011;11798;51.528;7.240;2023-07-30T00:47:29;10.70;;;4.60;;
23258;SDS011;11798;51.528;7.240;2023-07-30T00:49:55;8.53;;;5.07;;
23258;SDS011;11798;51.528;7.240;2023-07-30T00:52:21;9.13;;;4.43;;
23258;SDS011;11798;51.528;7.240;2023-07-30T00:54:48;7.53;;;5.17;;
23258;SDS011;11798;51.528;7.240;2023-07-30T00:57:17;8.20;;;4.47;;
23258;SDS011;11798;51.528;7.240;2023-07-30T00:59:44;8.43;;;4.30;;
23258;SDS011;11798;51.528;7.240;2023-07-30T01:02:11;6.90;;;4.17;;
23258;SDS011;11798;51.528;7.240;2023-07-30T01:04:37;6.07;;;4.50;;
23258;SDS011;11798;51.528;7.240;2023-07-30T01:07:05;7.90;;;4.40;;
23258;SDS011;11798;51.528;7.240;2023-07-30T01:09:31;5.83;;;4.07;;
23258;SDS011;11798;51.528;7.240;2023-07-30T01:11:58;13.57;;;5.07;;
23258;SDS011;11798;51.528;7.240;2023-07-30T01:14:25;7.60;;;4.43;;
23258;SDS011;11798;51.528;7.240;2023-07-30T01:16:51;10.13;;;4.90;;
23258;SDS011;11798;51.528;7.240;2023-07-30T01:19:18;7.03;;;4.50;;
23258;SDS011;11798;51.528;7.240;2023-07-30T01:21:44;7.33;;;5.00;;
23258;SDS011;11798;51.528;7.240;2023-07-30T01:24:09;14.03;;;4.70;;
23258;SDS011;11798;51.528;7.240;2023-07-30T01:27:19;10.50;;;5.10;;
23258;SDS011;11798;51.528;7.240;2023-07-30T01:29:27;10.27;;;5.10;;
23258;SDS011;11798;51.528;7.240;2023-07-30T01:32:05;9.70;;;4.97;;
23258;SDS011;11798;51.528;7.240;2023-07-30T01:34:35;9.33;;;5.37;;
23258;SDS011;11798;51.528;7.240;2023-07-30T01:37:03;11.13;;;5.57;;
23258;SDS011;11798;51.528;7.240;2023-07-30T01:39:30;10.87;;;4.50;;
23258;SDS011;11798;51.528;7.240;2023-07-30T01:41:57;6.70;;;4.73;;
23258;SDS011;11798;51.528;7.240;2023-07-30T01:44:23;6.87;;;4.70;;
23258;SDS011;11798;51.528;7.240;2023-07-30T01:46:49;13.70;;;5.27;;
23258;SDS011;11798;51.528;7.240;2023-07-30T01:49:14;9.50;;;4.87;;
23258;SDS011;11798;51.528;7.240;2023-07-30T01:51:40;7.77;;;4.70;;
23258;SDS011;11798;51.528;7.240;2023-07-30T01:54:05;7.03;;;4.80;;
23258;SDS011;11798;51.528;7.240;2023-07-30T01:56:31;8.23;;;4.33;;
23258;SDS011;11798;51.528;7.240;2023-07-30T01:58:57;7.93;;;4.90;;
23258;SDS011;11798;51.528;7.240;2023-07-30T02:01:22;9.70;;;4.60;;
23258;SDS011;11798;51.528;7.240;2023-07-30T02:03:48;6.33;;;4.93;;
23258;SDS011;11798;51.528;7.240;2023-07-30T02:06:14;8.03;;;4.60;;
23258;SDS011;11798;51.528;7.240;2023-07-30T02:08:39;12.57;;;5.10;;
23258;SDS011;11798;51.528;7.240;2023-07-30T02:11:05;8.20;;;4.60;;
23258;SDS011;11798;51.528;7.240;2023-07-30T02:13:30;9.70;;;4.60;;
23258;SDS011;11798;51.528;7.240;2023-07-30T02:15:56;11.10;;;5.30;;
23258;SDS011;11798;51.528;7.240;2023-07-30T02:18:22;6.30;;;4.47;;
23258;SDS011;11798;51.528;7.240;2023-07-30T02:20:47;12.10;;;5.30;;
23258;SDS011;11798;51.528;7.240;2023-07-30T02:23:13;11.47;;;5.30;;
23258;SDS011;11798;51.528;7.240;2023-07-30T02:25:41;10.37;;;5.57;;
23258;SDS011;11798;51.528;7.240;2023-07-30T02:28:07;10.50;;;5.40;;
23258;SDS011;11798;51.528;7.240;2023-07-30T02:30:33;9.57;;;5.83;;
23258;SDS011;11798;51.528;7.240;2023-07-30T02:32:59;10.50;;;5.13;;
23258;SDS011;11798;51.528;7.240;2023-07-30T02:35:24;17.07;;;5.97;;
23258;SDS011;11798;51.528;7.240;2023-07-30T02:37:50;10.70;;;5.93;;
23258;SDS011;11798;51.528;7.240;2023-07-30T02:40:16;9.23;;;5.33;;
23258;SDS011;11798;51.528;7.240;2023-07-30T02:42:41;9.27;;;5.83;;
23258;SDS011;11798;51.528;7.240;2023-07-30T02:45:07;10.90;;;5.67;;
23258;SDS011;11798;51.528;7.240;2023-07-30T02:47:33;11.00;;;5.30;;
23258;SDS011;11798;51.528;7.240;2023-07-30T02:49:58;10.37;;;5.10;;
23258;SDS011;11798;51.528;7.240;2023-07-30T02:52:24;10.50;;;5.00;;
23258;SDS011;11798;51.528;7.240;2023-07-30T02:54:50;9.97;;;4.80;;
23258;SDS011;11798;51.528;7.240;2023-07-30T02:57:15;12.57;;;5.60;;
23258;SDS011;11798;51.528;7.240;2023-07-30T02:59:41;9.90;;;5.47;;
23258;SDS011;11798;51.528;7.240;2023-07-30T03:02:06;12.87;;;4.90;;
23258;SDS011;11798;51.528;7.240;2023-07-30T03:04:32;8.00;;;5.13;;
23258;SDS011;11798;51.528;7.240;2023-07-30T03:06:58;9.80;;;5.13;;
23258;SDS011;11798;51.528;7.240;2023-07-30T03:09:24;10.13;;;4.93;;
23258;SDS011;11798;51.528;7.240;2023-07-30T03:11:50;8.17;;;4.37;;
23258;SDS011;11798;51.528;7.240;2023-07-30T03:14:15;11.63;;;5.17;;
23258;SDS011;11798;51.528;7.240;2023-07-30T03:16:41;6.73;;;4.50;;
23258;SDS011;11798;51.528;7.240;2023-07-30T03:19:07;8.70;;;5.60;;
23258;SDS011;11798;51.528;7.240;2023-07-30T03:21:32;9.50;;;5.10;;
23258;SDS011;11798;51.528;7.240;2023-07-30T03:23:58;8.23;;;5.03;;
23258;SDS011;11798;51.528;7.240;2023-07-30T03:26:23;7.50;;;4.67;;
23258;SDS011;11798;51.528;7.240;2023-07-30T03:28:49;8.10;;;4.97;;
23258;SDS011;11798;51.528;7.240;2023-07-30T03:31:15;13.90;;;4.97;;
23258;SDS011;11798;51.528;7.240;2023-07-30T03:33:40;11.27;;;5.17;;
23258;SDS011;11798;51.528;7.240;2023-07-30T03:36:09;8.70;;;4.70;;
23258;SDS011;11798;51.528;7.240;2023-07-30T03:38:36;13.50;;;5.00;;
23258;SDS011;11798;51.528;7.240;2023-07-30T03:41:01;14.57;;;5.40;;
23258;SDS011;11798;51.528;7.240;2023-07-30T03:43:29;8.03;;;4.93;;
23258;SDS011;11798;51.528;7.240;2023-07-30T03:45:54;8.53;;;5.37;;
23258;SDS011;11798;51.528;7.240;2023-07-30T03:48:20;9.93;;;4.63;;
23258;SDS011;11798;51.528;7.240;2023-07-30T03:50:45;10.03;;;5.03;;
23258;SDS011;11798;51.528;7.240;2023-07-30T03:53:11;7.70;;;4.20;;
23258;SDS011;11798;51.528;7.240;2023-07-30T03:55:37;9.83;;;5.27;;
23258;SDS011;11798;51.528;7.240;2023-07-30T03:58:04;8.37;;;4.37;;
23258;SDS011;11798;51.528;7.240;2023-07-30T04:00:29;8.20;;;4.23;;
23258;SDS011;11798;51.528;7.240;2023-07-30T04:02:55;9.27;;;4.70;;
23258;SDS011;11798;51.528;7.240;2023-07-30T04:05:20;9.80;;;4.93;;
23258;SDS011;11798;51.528;7.240;2023-07-30T04:07:46;10.70;;;5.20;;
23258;SDS011;11798;51.528;7.240;2023-07-30T04:10:12;10.57;;;5.00;;
23258;SDS011;11798;51.528;7.240;2023-07-30T04:12:37;11.63;;;6.17;;
23258;SDS011;11798;51.528;7.240;2023-07-30T04:15:03;10.70;;;5.60;;
23258;SDS011;11798;51.528;7.240;2023-07-30T04:20:03;10.10;;;4.77;;
23258;SDS011;11798;51.528;7.240;2023-07-30T04:22:39;9.70;;;4.90;;
23258;SDS011;11798;51.528;7.240;2023-07-30T04:25:06;9.73;;;4.97;;
23258;SDS011;11798;51.528;7.240;2023-07-30T04:27:32;10.63;;;4.57;;
23258;SDS011;11798;51.528;7.240;2023-07-30T04:29:58;14.40;;;5.03;;
23258;SDS011;11798;51.528;7.240;2023-07-30T04:32:23;10.37;;;4.90;;
23258;SDS011;11798;51.528;7.240;2023-07-30T04:34:49;9.93;;;4.90;;
23258;SDS011;11798;51.528;7.240;2023-07-30T04:37:15;9.90;;;4.63;;
23258;SDS011;11798;51.528;7.240;2023-07-30T04:39:40;9.23;;;5.37;;
23258;SDS011;11798;51.528;7.240;2023-07-30T04:42:06;9.87;;;4.50;;
23258;SDS011;11798;51.528;7.240;2023-07-30T04:44:32;11.83;;;5.00;;
23258;SDS011;11798;51.528;7.240;2023-07-30T04:46:58;9.47;;;4.43;;
23258;SDS011;11798;51.528;7.240;2023-07-30T04:49:23;12.27;;;4.63;;
23258;SDS011;11798;51.528;7.240;2023-07-30T04:51:49;11.20;;;4.40;;
23258;SDS011;11798;51.528;7.240;2023-07-30T04:54:14;10.20;;;4.53;;
23258;SDS011;11798;51.528;7.240;2023-07-30T04:56:40;10.37;;;5.23;;
23258;SDS011;11798;51.528;7.240;2023-07-30T04:59:06;11.97;;;5.10;;
23258;SDS011;11798;51.528;7.240;2023-07-30T05:01:32;13.20;;;4.53;;
23258;SDS011;11798;51.528;7.240;2023-07-30T05:03:57;10.07;;;4.77;;
23258;SDS011;11798;51.528;7.240;2023-07-30T05:06:23;9.37;;;4.60;;
23258;SDS011;11798;51.528;7.240;2023-07-30T05:08:49;7.77;;;4.50;;
23258;SDS011;11798;51.528;7.240;2023-07-30T05:11:14;11.50;;;4.90;;
23258;SDS011;11798;51.528;7.240;2023-07-30T05:13:40;10.30;;;4.43;;
23258;SDS011;11798;51.528;7.240;2023-07-30T05:16:05;8.80;;;5.07;;
23258;SDS011;11798;51.528;7.240;2023-07-30T05:18:31;12.03;;;5.23;;
23258;SDS011;11798;51.528;7.240;2023-07-30T05:20:57;13.97;;;4.57;;
23258;SDS011;11798;51.528;7.240;2023-07-30T05:23:22;10.40;;;4.67;;
23258;SDS011;11798;51.528;7.240;2023-07-30T05:25:48;9.67;;;4.73;;
23258;SDS011;11798;51.528;7.240;2023-07-30T05:28:14;10.80;;;4.63;;
23258;SDS011;11798;51.528;7.240;2023-07-30T05:30:39;10.03;;;4.87;;
23258;SDS011;11798;51.528;7.240;2023-07-30T05:33:05;12.77;;;4.90;;
23258;SDS011;11798;51.528;7.240;2023-07-30T05:35:30;10.00;;;5.23;;
23258;SDS011;11798;51.528;7.240;2023-07-30T05:37:56;11.97;;;5.13;;
23258;SDS011;11798;51.528;7.240;2023-07-30T05:40:22;12.57;;;4.90;;
23258;SDS011;11798;51.528;7.240;2023-07-30T05:42:47;15.13;;;5.40;;
23258;SDS011;11798;51.528;7.240;2023-07-30T05:45:13;11.63;;;4.83;;
23258;SDS011;11798;51.528;7.240;2023-07-30T05:47:39;10.90;;;5.20;;
23258;SDS011;11798;51.528;7.240;2023-07-30T05:50:05;13.33;;;4.83;;
23258;SDS011;11798;51.528;7.240;2023-07-30T05:52:32;12.87;;;5.40;;
23258;SDS011;11798;51.528;7.240;2023-07-30T05:54:58;9.50;;;4.83;;
23258;SDS011;11798;51.528;7.240;2023-07-30T05:57:23;12.00;;;5.40;;
23258;SDS011;11798;51.528;7.240;2023-07-30T05:59:49;10.53;;;5.27;;
23258;SDS011;11798;51.528;7.240;2023-07-30T06:02:15;13.33;;;5.53;;
23258;SDS011;11798;51.528;7.240;2023-07-30T06:04:40;9.40;;;4.93;;
23258;SDS011;11798;51.528;7.240;2023-07-30T06:07:06;13.03;;;5.40;;
23258;SDS011;11798;51.528;7.240;2023-07-30T06:09:32;15.63;;;6.40;;
23258;SDS011;11798;51.528;7.240;2023-07-30T06:11:57;16.23;;;5.50;;
23258;SDS011;11798;51.528;7.240;2023-07-30T06:14:23;11.20;;;5.63;;
23258;SDS011;11798;51.528;7.240;2023-07-30T06:16:50;14.33;;;5.43;;
23258;SDS011;11798;51.528;7.240;2023-07-30T06:19:16;15.00;;;5.70;;
23258;SDS011;11798;51.528;7.240;2023-07-30T06:21:42;10.40;;;5.23;;
23258;SDS011;11798;51.528;7.240;2023-07-30T06:24:07;14.33;;;6.13;;
23258;SDS011;11798;51.528;7.240;2023-07-30T06:26:33;19.00;;;7.00;;
23258;SDS011;11798;51.528;7.240;2023-07-30T06:28:59;14.13;;;6.47;;
23258;SDS011;11798;51.528;7.240;2023-07-30T06:31:24;12.33;;;6.63;;
23258;SDS011;11798;51.528;7.240;2023-07-30T06:33:50;10.93;;;5.77;;
23258;SDS011;11798;51.528;7.240;2023-07-30T06:36:16;16.70;;;6.07;;
23258;SDS011;11798;51.528;7.240;2023-07-30T06:38:41;13.70;;;6.20;;
23258;SDS011;11798;51.528;7.240;2023-07-30T06:41:07;14.13;;;5.80;;
23258;SDS011;11798;51.528;7.240;2023-07-30T06:43:32;12.57;;;6.40;;
23258;SDS011;11798;51.528;7.240;2023-07-30T06:45:58;13.10;;;6.40;;
23258;SDS011;11798;51.528;7.240;2023-07-30T06:48:23;14.07;;;6.63;;
23258;SDS011;11798;51.528;7.240;2023-07-30T06:50:49;14.83;;;6.67;;
23258;SDS011;11798;51.528;7.240;2023-07-30T06:53:15;16.00;;;6.87;;
23258;SDS011;11798;51.528;7.240;2023-07-30T06:55:40;12.47;;;6.20;;
23258;SDS011;11798;51.528;7.240;2023-07-30T06:58:06;12.10;;;6.00;;
23258;SDS011;11798;51.528;7.240;2023-07-30T07:00:32;12.13;;;5.67;;
23258;SDS011;11798;51.528;7.240;2023-07-30T07:02:57;16.10;;;5.93;;
23258;SDS011;11798;51.528;7.240;2023-07-30T07:05:23;12.57;;;5.23;;
23258;SDS011;11798;51.528;7.240;2023-07-30T07:07:48;11.23;;;5.63;;
23258;SDS011;11798;51.528;7.240;2023-07-30T07:10:14;12.17;;;5.23;;
23258;SDS011;11798;51.528;7.240;2023-07-30T07:12:40;13.40;;;5.47;;
23258;SDS011;11798;51.528;7.240;2023-07-30T07:15:06;10.57;;;4.73;;
23258;SDS011;11798;51.528;7.240;2023-07-30T07:17:32;13.07;;;5.87;;
23258;SDS011;11798;51.528;7.240;2023-07-30T07:19:57;10.53;;;5.53;;
23258;SDS011;11798;51.528;7.240;2023-07-30T07:22:23;9.73;;;5.57;;
23258;SDS011;11798;51.528;7.240;2023-07-30T07:24:49;10.97;;;5.07;;
23258;SDS011;11798;51.528;7.240;2023-07-30T07:27:18;11.87;;;5.73;;
23258;SDS011;11798;51.528;7.240;2023-07-30T07:29:44;11.53;;;5.30;;
23258;SDS011;11798;51.528;7.240;2023-07-30T07:32:09;11.37;;;5.40;;
23258;SDS011;11798;51.528;7.240;2023-07-30T07:34:35;14.33;;;5.37;;
23258;SDS011;11798;51.528;7.240;2023-07-30T07:37:01;10.43;;;5.13;;
23258;SDS011;11798;51.528;7.240;2023-07-30T07:39:27;10.77;;;5.40;;
23258;SDS011;11798;51.528;7.240;2023-07-30T07:41:53;12.40;;;5.23;;
23258;SDS011;11798;51.528;7.240;2023-07-30T07:44:20;11.40;;;4.87;;
23258;SDS011;11798;51.528;7.240;2023-07-30T07:46:46;14.00;;;5.50;;
23258;SDS011;11798;51.528;7.240;2023-07-30T07:49:12;12.50;;;5.40;;
23258;SDS011;11798;51.528;7.240;2023-07-30T07:51:38;9.40;;;4.50;;
23258;SDS011;11798;51.528;7.240;2023-07-30T07:54:03;8.17;;;4.60;;
23258;SDS011;11798;51.528;7.240;2023-07-30T07:56:29;9.93;;;4.40;;
23258;SDS011;11798;51.528;7.240;2023-07-30T07:58:56;10.77;;;4.50;;
23258;SDS011;11798;51.528;7.240;2023-07-30T08:01:22;11.10;;;4.20;;
23258;SDS011;11798;51.528;7.240;2023-07-30T08:03:47;12.80;;;3.93;;
23258;SDS011;11798;51.528;7.240;2023-07-30T08:06:13;10.70;;;5.00;;
23258;SDS011;11798;51.528;7.240;2023-07-30T08:08:38;11.77;;;4.70;;
23258;SDS011;11798;51.528;7.240;2023-07-30T08:11:04;10.93;;;4.30;;
23258;SDS011;11798;51.528;7.240;2023-07-30T08:13:31;10.27;;;4.73;;
23258;SDS011;11798;51.528;7.240;2023-07-30T08:15:57;9.53;;;4.07;;
23258;SDS011;11798;51.528;7.240;2023-07-30T08:18:23;8.53;;;4.40;;
23258;SDS011;11798;51.528;7.240;2023-07-30T08:20:49;11.80;;;5.10;;
23258;SDS011;11798;51.528;7.240;2023-07-30T08:23:15;13.67;;;4.90;;
23258;SDS011;11798;51.528;7.240;2023-07-30T08:25:40;11.70;;;5.00;;
23258;SDS011;11798;51.528;7.240;2023-07-30T08:28:06;13.80;;;5.40;;
23258;SDS011;11798;51.528;7.240;2023-07-30T08:30:31;9.10;;;5.03;;
23258;SDS011;11798;51.528;7.240;2023-07-30T08:32:57;11.53;;;4.70;;
23258;SDS011;11798;51.528;7.240;2023-07-30T08:35:23;11.97;;;6.03;;
23258;SDS011;11798;51.528;7.240;2023-07-30T08:37:48;14.33;;;5.00;;
23258;SDS011;11798;51.528;7.240;2023-07-30T08:40:14;15.40;;;6.03;;
23258;SDS011;11798;51.528;7.240;2023-07-30T08:42:40;10.73;;;5.53;;
23258;SDS011;11798;51.528;7.240;2023-07-30T08:45:06;11.27;;;5.97;;
23258;SDS011;11798;51.528;7.240;2023-07-30T08:47:33;7.53;;;5.20;;
23258;SDS011;11798;51.528;7.240;2023-07-30T08:50:00;10.20;;;5.80;;
23258;SDS011;11798;51.528;7.240;2023-07-30T08:52:26;14.87;;;6.80;;
23258;SDS011;11798;51.528;7.240;2023-07-30T08:54:54;13.93;;;6.37;;
23258;SDS011;11798;51.528;7.240;2023-07-30T08:57:22;13.83;;;6.00;;
23258;SDS011;11798;51.528;7.240;2023-07-30T08:59:53;12.70;;;6.23;;
23258;SDS011;11798;51.528;7.240;2023-07-30T09:02:44;12.00;;;6.00;;
23258;SDS011;11798;51.528;7.240;2023-07-30T09:05:16;19.87;;;6.23;;
23258;SDS011;11798;51.528;7.240;2023-07-30T09:07:42;11.53;;;5.90;;
23258;SDS011;11798;51.528;7.240;2023-07-30T09:10:07;13.87;;;5.37;;
23258;SDS011;11798;51.528;7.240;2023-07-30T09:12:34;10.30;;;5.30;;
23258;SDS011;11798;51.528;7.240;2023-07-30T09:15:01;11.83;;;5.80;;
23258;SDS011;11798;51.528;7.240;2023-07-30T09:17:29;9.80;;;5.07;;
23258;SDS011;11798;51.528;7.240;2023-07-30T09:19:55;12.57;;;5.70;;
23258;SDS011;11798;51.528;7.240;2023-07-30T09:22:24;12.37;;;6.00;;
23258;SDS011;11798;51.528;7.240;2023-07-30T09:24:54;12.97;;;5.70;;
23258;SDS011;11798;51.528;7.240;2023-07-30T09:27:21;11.20;;;5.17;;
23258;SDS011;11798;51.528;7.240;2023-07-30T09:29:51;13.03;;;6.00;;
23258;SDS011;11798;51.528;7.240;2023-07-30T09:32:18;9.10;;;5.10;;
23258;SDS011;11798;51.528;7.240;2023-07-30T09:34:45;15.70;;;5.63;;
23258;SDS011;11798;51.528;7.240;2023-07-30T09:37:11;8.63;;;4.87;;
23258;SDS011;11798;51.528;7.240;2023-07-30T09:39:37;11.40;;;5.10;;
23258;SDS011;11798;51.528;7.240;2023-07-30T09:42:03;11.23;;;5.37;;
23258;SDS011;11798;51.528;7.240;2023-07-30T09:44:31;14.67;;;5.47;;
23258;SDS011;11798;51.528;7.240;2023-07-30T09:47:00;14.07;;;5.53;;
23258;SDS011;11798;51.528;7.240;2023-07-30T09:49:30;14.17;;;4.80;;
23258;SDS011;11798;51.528;7.240;2023-07-30T09:51:57;15.07;;;5.33;;
23258;SDS011;11798;51.528;7.240;2023-07-30T09:56:57;9.63;;;5.00;;
23258;SDS011;11798;51.528;7.240;2023-07-30T09:59:22;13.00;;;4.57;;
23258;SDS011;11798;51.528;7.240;2023-07-30T10:04:18;10.43;;;4.13;;
23258;SDS011;11798;51.528;7.240;2023-07-30T10:09:19;8.48;;;3.70;;
23258;SDS011;11798;51.528;7.240;2023-07-30T10:16:52;9.63;;;3.40;;
23258;SDS011;11798;51.528;7.240;2023-07-30T10:21:48;8.80;;;3.50;;
23258;SDS011;11798;51.528;7.240;2023-07-30T10:24:14;12.13;;;3.90;;
23258;SDS011;11798;51.528;7.240;2023-07-30T10:26:39;9.43;;;3.38;;
23258;SDS011;11798;51.528;7.240;2023-07-30T10:29:12;8.68;;;3.17;;
23258;SDS011;11798;51.528;7.240;2023-07-30T10:31:42;7.75;;;2.75;;
23258;SDS011;11798;51.528;7.240;2023-07-30T10:34:21;10.05;;;3.92;;
23258;SDS011;11798;51.528;7.240;2023-07-30T10:36:51;9.07;;;3.27;;
23258;SDS011;11798;51.528;7.240;2023-07-30T10:39:20;9.75;;;2.85;;
23258;SDS011;11798;51.528;7.240;2023-07-30T10:41:51;7.85;;;2.30;;
23258;SDS011;11798;51.528;7.240;2023-07-30T10:44:25;6.05;;;2.13;;
23258;SDS011;11798;51.528;7.240;2023-07-30T10:46:56;9.68;;;2.53;;
23258;SDS011;11798;51.528;7.240;2023-07-30T10:49:22;12.80;;;4.22;;
23258;SDS011;11798;51.528;7.240;2023-07-30T10:51:48;14.02;;;5.00;;
23258;SDS011;11798;51.528;7.240;2023-07-30T10:54:15;13.82;;;4.28;;
23258;SDS011;11798;51.528;7.240;2023-07-30T10:56:41;7.90;;;3.05;;
23258;SDS011;11798;51.528;7.240;2023-07-30T10:59:07;9.68;;;2.95;;
23258;SDS011;11798;51.528;7.240;2023-07-30T11:01:38;7.88;;;3.15;;
23258;SDS011;11798;51.528;7.240;2023-07-30T11:04:08;9.18;;;2.80;;
23258;SDS011;11798;51.528;7.240;2023-07-30T11:06:38;6.88;;;2.28;;
23258;SDS011;11798;51.528;7.240;2023-07-30T11:09:04;8.32;;;2.55;;
23258;SDS011;11798;51.528;7.240;2023-07-30T11:11:30;7.25;;;2.10;;
23258;SDS011;11798;51.528;7.240;2023-07-30T11:13:56;7.70;;;2.70;;
23258;SDS011;11798;51.528;7.240;2023-07-30T11:16:23;4.65;;;2.10;;
23258;SDS011;11798;51.528;7.240;2023-07-30T11:18:48;9.20;;;2.92;;
23258;SDS011;11798;51.528;7.240;2023-07-30T11:21:15;6.25;;;1.92;;
23258;SDS011;11798;51.528;7.240;2023-07-30T11:23:42;6.28;;;2.10;;
23258;SDS011;11798;51.528;7.240;2023-07-30T11:26:12;8.02;;;2.38;;
23258;SDS011;11798;51.528;7.240;2023-07-30T11:28:42;7.72;;;2.47;;
23258;SDS011;11798;51.528;7.240;2023-07-30T11:31:13;5.20;;;2.13;;
23258;SDS011;11798;51.528;7.240;2023-07-30T11:33:41;8.25;;;2.63;;
23258;SDS011;11798;51.528;7.240;2023-07-30T11:36:12;5.43;;;2.20;;
23258;SDS011;11798;51.528;7.240;2023-07-30T11:38:40;4.70;;;2.20;;
23258;SDS011;11798;51.528;7.240;2023-07-30T11:41:06;8.45;;;2.42;;
23258;SDS011;11798;51.528;7.240;2023-07-30T11:43:35;6.13;;;2.13;;
23258;SDS011;11798;51.528;7.240;2023-07-30T11:46:06;6.43;;;2.33;;
23258;SDS011;11798;51.528;7.240;2023-07-30T11:48:33;7.47;;;2.33;;
23258;SDS011;11798;51.528;7.240;2023-07-30T11:50:59;8.30;;;2.55;;
23258;SDS011;11798;51.528;7.240;2023-07-30T11:53:43;7.38;;;2.40;;
23258;SDS011;11798;51.528;7.240;2023-07-30T11:56:20;7.95;;;2.35;;
23258;SDS011;11798;51.528;7.240;2023-07-30T11:58:47;4.65;;;2.08;;
23258;SDS011;11798;51.528;7.240;2023-07-30T12:01:16;7.28;;;2.30;;
23258;SDS011;11798;51.528;7.240;2023-07-30T12:03:42;8.00;;;2.38;;
23258;SDS011;11798;51.528;7.240;2023-07-30T12:06:09;5.53;;;1.83;;
23258;SDS011;11798;51.528;7.240;2023-07-30T12:08:36;4.93;;;1.90;;
23258;SDS011;11798;51.528;7.240;2023-07-30T12:11:02;6.47;;;2.72;;
23258;SDS011;11798;51.528;7.240;2023-07-30T12:13:32;5.60;;;1.70;;
23258;SDS011;11798;51.528;7.240;2023-07-30T12:15:58;6.75;;;2.35;;
23258;SDS011;11798;51.528;7.240;2023-07-30T12:18:25;5.60;;;2.22;;
23258;SDS011;11798;51.528;7.240;2023-07-30T12:20:52;8.57;;;2.08;;
23258;SDS011;11798;51.528;7.240;2023-07-30T12:23:18;7.20;;;2.10;;
23258;SDS011;11798;51.528;7.240;2023-07-30T12:25:45;6.63;;;2.10;;
23258;SDS011;11798;51.528;7.240;2023-07-30T12:28:11;6.55;;;2.25;;
23258;SDS011;11798;51.528;7.240;2023-07-30T12:30:37;6.18;;;1.90;;
23258;SDS011;11798;51.528;7.240;2023-07-30T12:33:05;6.03;;;2.03;;
23258;SDS011;11798;51.528;7.240;2023-07-30T12:35:31;7.88;;;2.60;;
23258;SDS011;11798;51.528;7.240;2023-07-30T12:37:58;5.60;;;2.17;;
23258;SDS011;11798;51.528;7.240;2023-07-30T12:40:24;5.10;;;2.00;;
23258;SDS011;11798;51.528;7.240;2023-07-30T12:42:50;8.27;;;2.33;;
23258;SDS011;11798;51.528;7.240;2023-07-30T12:45:16;4.43;;;1.50;;
23258;SDS011;11798;51.528;7.240;2023-07-30T12:47:41;6.85;;;1.98;;
23258;SDS011;11798;51.528;7.240;2023-07-30T12:50:07;7.65;;;2.30;;
23258;SDS011;11798;51.528;7.240;2023-07-30T12:52:33;6.72;;;2.13;;
23258;SDS011;11798;51.528;7.240;2023-07-30T12:54:59;5.95;;;2.15;;
23258;SDS011;11798;51.528;7.240;2023-07-30T12:57:25;5.75;;;1.90;;
23258;SDS011;11798;51.528;7.240;2023-07-30T12:59:51;5.10;;;1.85;;
23258;SDS011;11798;51.528;7.240;2023-07-30T13:02:16;3.30;;;1.63;;
23258;SDS011;11798;51.528;7.240;2023-07-30T13:04:42;5.60;;;1.88;;
23258;SDS011;11798;51.528;7.240;2023-07-30T13:07:08;5.00;;;1.95;;
23258;SDS011;11798;51.528;7.240;2023-07-30T13:09:33;4.55;;;1.45;;
23258;SDS011;11798;51.528;7.240;2023-07-30T13:11:59;7.10;;;2.08;;
23258;SDS011;11798;51.528;7.240;2023-07-30T13:14:24;8.02;;;1.73;;
23258;SDS011;11798;51.528;7.240;2023-07-30T13:16:50;4.05;;;1.95;;
23258;SDS011;11798;51.528;7.240;2023-07-30T13:19:15;9.23;;;1.70;;
23258;SDS011;11798;51.528;7.240;2023-07-30T13:21:41;5.30;;;1.35;;
23258;SDS011;11798;51.528;7.240;2023-07-30T13:24:07;3.85;;;1.45;;
23258;SDS011;11798;51.528;7.240;2023-07-30T13:26:32;3.75;;;1.50;;
23258;SDS011;11798;51.528;7.240;2023-07-30T13:28:58;5.57;;;1.67;;
23258;SDS011;11798;51.528;7.240;2023-07-30T13:31:23;5.18;;;1.60;;
23258;SDS011;11798;51.528;7.240;2023-07-30T13:33:49;2.78;;;1.40;;
23258;SDS011;11798;51.528;7.240;2023-07-30T13:36:16;2.95;;;1.35;;
23258;SDS011;11798;51.528;7.240;2023-07-30T13:38:42;4.47;;;1.60;;
23258;SDS011;11798;51.528;7.240;2023-07-30T13:41:08;5.45;;;1.80;;
23258;SDS011;11798;51.528;7.240;2023-07-30T13:43:34;4.50;;;1.60;;
23258;SDS011;11798;51.528;7.240;2023-07-30T13:45:59;5.20;;;1.40;;
23258;SDS011;11798;51.528;7.240;2023-07-30T13:48:25;4.93;;;1.60;;
23258;SDS011;11798;51.528;7.240;2023-07-30T13:50:51;5.97;;;1.60;;
23258;SDS011;11798;51.528;7.240;2023-07-30T13:53:17;6.15;;;1.80;;
23258;SDS011;11798;51.528;7.240;2023-07-30T13:55:42;6.28;;;2.08;;
23258;SDS011;11798;51.528;7.240;2023-07-30T13:58:08;7.45;;;1.95;;
23258;SDS011;11798;51.528;7.240;2023-07-30T14:00:34;7.25;;;2.10;;
23258;SDS011;11798;51.528;7.240;2023-07-30T14:03:00;4.13;;;1.75;;
23258;SDS011;11798;51.528;7.240;2023-07-30T14:05:26;4.75;;;1.90;;
23258;SDS011;11798;51.528;7.240;2023-07-30T14:07:54;4.30;;;1.70;;
23258;SDS011;11798;51.528;7.240;2023-07-30T14:10:22;5.50;;;1.77;;
23258;SDS011;11798;51.528;7.240;2023-07-30T14:12:48;6.78;;;2.00;;
23258;SDS011;11798;51.528;7.240;2023-07-30T14:15:14;4.47;;;2.03;;
23258;SDS011;11798;51.528;7.240;2023-07-30T14:17:40;4.90;;;1.70;;
23258;SDS011;11798;51.528;7.240;2023-07-30T14:20:06;7.93;;;2.10;;
23258;SDS011;11798;51.528;7.240;2023-07-30T14:22:32;5.35;;;1.90;;
23258;SDS011;11798;51.528;7.240;2023-07-30T14:24:59;6.40;;;2.17;;
23258;SDS011;11798;51.528;7.240;2023-07-30T14:27:25;7.70;;;2.38;;
23258;SDS011;11798;51.528;7.240;2023-07-30T14:29:51;7.78;;;2.08;;
23258;SDS011;11798;51.528;7.240;2023-07-30T14:32:17;5.32;;;1.70;;
23258;SDS011;11798;51.528;7.240;2023-07-30T14:34:44;4.80;;;1.88;;
23258;SDS011;11798;51.528;7.240;2023-07-30T14:37:10;6.53;;;2.17;;
23258;SDS011;11798;51.528;7.240;2023-07-30T14:39:35;4.53;;;1.70;;
23258;SDS011;11798;51.528;7.240;2023-07-30T14:42:01;6.67;;;1.90;;
23258;SDS011;11798;51.528;7.240;2023-07-30T14:44:27;7.57;;;2.40;;
23258;SDS011;11798;51.528;7.240;2023-07-30T14:46:52;7.28;;;2.53;;
23258;SDS011;11798;51.528;7.240;2023-07-30T14:49:18;5.22;;;2.42;;
23258;SDS011;11798;51.528;7.240;2023-07-30T14:51:44;5.80;;;2.50;;
23258;SDS011;11798;51.528;7.240;2023-07-30T14:54:10;6.23;;;2.60;;
23258;SDS011;11798;51.528;7.240;2023-07-30T14:56:37;5.72;;;2.40;;
23258;SDS011;11798;51.528;7.240;2023-07-30T14:59:03;7.40;;;2.03;;